createdAt,value
2022-09-21T00:00:07.854Z,94
2022-09-21T00:01:14.504Z,96
2022-09-21T00:02:21.566Z,96
2022-09-21T00:03:28.681Z,97
2022-09-21T00:04:35.742Z,97
2022-09-21T00:05:42.819Z,97
2022-09-21T00:06:50.450Z,97
2022-09-21T00:07:56.535Z,97
2022-09-21T00:09:04.177Z,97
2022-09-21T00:10:10.761Z,97
2022-09-21T00:11:17.850Z,97
2022-09-21T00:12:24.407Z,97
2022-09-21T00:13:31.609Z,98
2022-09-21T00:14:38.679Z,98
2022-09-21T00:15:45.741Z,98
2022-09-21T00:16:52.374Z,98
2022-09-21T00:17:59.479Z,98
2022-09-21T00:19:06.577Z,98
2022-09-21T00:20:13.645Z,98
2022-09-21T00:21:20.752Z,98
2022-09-21T00:22:27.860Z,98
2022-09-21T00:23:34.426Z,98
2022-09-21T00:24:41.693Z,98
2022-09-21T00:26:55.742Z,98
2022-09-21T00:28:02.851Z,98
2022-09-21T00:29:09.440Z,98
2022-09-21T00:30:16.565Z,98
2022-09-21T00:31:23.728Z,98
2022-09-21T00:32:30.852Z,98
2022-09-21T00:33:37.420Z,98
2022-09-21T00:34:44.439Z,98
2022-09-21T00:35:51.583Z,98
2022-09-21T00:36:58.648Z,98
2022-09-21T00:38:05.769Z,98
2022-09-21T00:39:12.371Z,98
2022-09-21T00:40:19.545Z,98
2022-09-21T00:41:26.685Z,98
2022-09-21T00:42:33.793Z,98
2022-09-21T00:43:40.876Z,98
2022-09-21T00:44:47.909Z,98
2022-09-21T00:45:54.542Z,98
2022-09-21T00:47:01.580Z,98
2022-09-21T00:48:08.659Z,98
2022-09-21T00:49:16.049Z,98
2022-09-21T00:50:23.407Z,98
2022-09-21T00:52:36.599Z,98
2022-09-21T00:54:51.013Z,98
2022-09-21T00:55:57.400Z,98
2022-09-21T00:57:04.483Z,98
2022-09-21T00:58:11.607Z,98
2022-09-21T00:59:21.490Z,98
2022-09-21T01:00:25.768Z,98
2022-09-21T01:01:32.482Z,98
2022-09-21T01:02:39.558Z,98
2022-09-21T01:03:46.644Z,98
2022-09-21T01:04:53.730Z,98
2022-09-21T01:07:07.440Z,98
2022-09-21T01:08:14.482Z,98
2022-09-21T01:09:21.600Z,98
2022-09-21T01:10:29.251Z,98
2022-09-21T01:11:35.797Z,98
2022-09-21T01:12:42.380Z,98
2022-09-21T01:13:49.488Z,98
2022-09-21T01:14:56.650Z,98
2022-09-21T01:16:03.725Z,98
2022-09-21T01:17:10.809Z,98
2022-09-21T01:18:17.438Z,98
2022-09-21T01:19:24.469Z,98
2022-09-21T01:20:31.620Z,98
2022-09-21T01:22:45.291Z,98
2022-09-21T01:23:52.454Z,98
2022-09-21T01:24:59.529Z,98
2022-09-21T01:26:06.647Z,98
2022-09-21T01:27:13.702Z,98
2022-09-21T01:28:20.302Z,98
2022-09-21T01:29:27.425Z,98
2022-09-21T01:30:34.544Z,98
2022-09-21T01:31:42.239Z,98
2022-09-21T01:32:48.761Z,98
2022-09-21T01:33:55.850Z,98
2022-09-21T01:35:02.440Z,98
2022-09-21T01:36:09.575Z,98
2022-09-21T01:37:16.663Z,98
2022-09-21T01:38:23.725Z,98
2022-09-21T01:39:30.334Z,98
2022-09-21T01:40:37.517Z,98
2022-09-21T01:41:44.548Z,98
2022-09-21T01:42:53.483Z,98
2022-09-21T01:43:58.745Z,98
2022-09-21T01:45:05.348Z,98
2022-09-21T01:46:12.401Z,98
2022-09-21T01:47:19.574Z,98
2022-09-21T01:48:26.741Z,98
2022-09-21T01:49:33.781Z,98
2022-09-21T01:50:40.388Z,98
2022-09-21T01:51:47.419Z,98
2022-09-21T01:52:54.572Z,98
2022-09-21T01:54:01.661Z,98
2022-09-21T01:55:08.779Z,98
2022-09-21T01:56:16.419Z,98
2022-09-21T01:57:22.483Z,98
2022-09-21T01:58:29.560Z,98
2022-09-21T01:59:36.694Z,98
2022-09-21T02:00:43.915Z,98
2022-09-21T02:01:50.453Z,98
2022-09-21T02:02:57.451Z,98
2022-09-21T02:04:04.615Z,98
2022-09-21T02:05:11.687Z,98
2022-09-21T02:06:18.808Z,98
2022-09-21T02:07:25.353Z,98
2022-09-21T02:08:32.459Z,98
2022-09-21T02:09:39.641Z,98
2022-09-21T02:10:46.703Z,98
2022-09-21T02:11:53.808Z,98
2022-09-21T02:14:09.446Z,98
2022-09-21T02:15:14.590Z,98
2022-09-21T02:16:21.785Z,98
2022-09-21T02:17:28.821Z,98
2022-09-21T02:18:35.401Z,98
2022-09-21T02:19:42.500Z,98
2022-09-21T02:20:49.576Z,98
2022-09-21T02:21:56.677Z,98
2022-09-21T02:23:03.874Z,98
2022-09-21T02:24:10.945Z,98
2022-09-21T02:25:17.600Z,98
2022-09-21T02:26:24.592Z,98
2022-09-21T02:27:31.736Z,98
2022-09-21T02:28:38.325Z,98
2022-09-21T02:29:45.349Z,98
2022-09-21T02:30:52.491Z,98
2022-09-21T02:31:59.608Z,98
2022-09-21T02:33:06.727Z,98
2022-09-21T02:35:20.423Z,98
2022-09-21T02:36:27.579Z,98
2022-09-21T02:37:34.622Z,98
2022-09-21T02:38:41.721Z,98
2022-09-21T02:39:48.290Z,98
2022-09-21T02:40:55.416Z,98
2022-09-21T02:42:02.502Z,98
2022-09-21T02:43:09.633Z,98
2022-09-21T02:44:16.742Z,98
2022-09-21T02:45:23.824Z,98
2022-09-21T02:46:30.502Z,98
2022-09-21T02:47:37.645Z,98
2022-09-21T02:48:44.617Z,98
2022-09-21T02:49:51.755Z,98
2022-09-21T02:50:58.303Z,98
2022-09-21T02:53:12.522Z,98
2022-09-21T02:55:26.762Z,98
2022-09-21T02:56:33.368Z,98
2022-09-21T02:57:40.483Z,98
2022-09-21T02:59:54.616Z,98
2022-09-21T03:01:01.825Z,98
2022-09-21T03:02:08.350Z,98
2022-09-21T03:03:15.439Z,98
2022-09-21T03:04:22.499Z,98
2022-09-21T03:05:29.771Z,98
2022-09-21T03:06:36.770Z,98
2022-09-21T03:07:43.327Z,98
2022-09-21T03:08:50.446Z,98
2022-09-21T03:09:57.836Z,98
2022-09-21T03:11:04.665Z,98
2022-09-21T03:12:11.803Z,98
2022-09-21T03:13:18.339Z,98
2022-09-21T03:14:25.491Z,98
2022-09-21T03:15:32.520Z,98
2022-09-21T03:16:39.661Z,98
2022-09-21T03:17:47.314Z,98
2022-09-21T03:18:53.350Z,98
2022-09-21T03:21:07.553Z,98
2022-09-21T03:22:14.677Z,98
2022-09-21T03:23:21.249Z,98
2022-09-21T03:24:28.446Z,98
2022-09-21T03:25:35.450Z,98
2022-09-21T03:26:42.566Z,98
2022-09-21T03:27:49.727Z,98
2022-09-21T03:28:56.299Z,98
2022-09-21T03:30:03.359Z,98
2022-09-21T03:31:10.628Z,98
2022-09-21T03:32:17.612Z,98
2022-09-21T03:33:24.684Z,98
2022-09-21T03:34:31.818Z,98
2022-09-21T03:36:47.338Z,98
2022-09-21T03:37:52.547Z,98
2022-09-21T03:38:59.721Z,98
2022-09-21T03:40:06.312Z,98
2022-09-21T03:41:13.385Z,98
2022-09-21T03:42:20.525Z,98
2022-09-21T03:43:27.620Z,98
2022-09-21T03:44:34.715Z,98
2022-09-21T03:45:41.307Z,98
2022-09-21T03:46:48.624Z,98
2022-09-21T03:49:02.573Z,98
2022-09-21T03:50:10.151Z,98
2022-09-21T03:51:16.314Z,98
2022-09-21T03:52:23.397Z,98
2022-09-21T03:53:30.532Z,98
2022-09-21T03:54:37.645Z,98
2022-09-21T03:55:44.744Z,98
2022-09-21T03:56:51.341Z,98
2022-09-21T03:57:58.472Z,98
2022-09-21T03:59:05.489Z,98
2022-09-21T04:00:12.617Z,98
2022-09-21T04:01:20.646Z,98
2022-09-21T04:03:33.425Z,98
2022-09-21T04:04:40.539Z,98
2022-09-21T04:05:47.612Z,98
2022-09-21T04:06:55.192Z,98
2022-09-21T04:08:01.332Z,98
2022-09-21T04:09:08.417Z,98
2022-09-21T04:10:15.483Z,98
2022-09-21T04:11:22.599Z,98
2022-09-21T04:12:29.319Z,98
2022-09-21T04:13:36.307Z,98
2022-09-21T04:14:43.383Z,98
2022-09-21T04:15:50.570Z,98
2022-09-21T04:18:04.341Z,98
2022-09-21T04:19:11.398Z,98
2022-09-21T04:20:18.487Z,98
2022-09-21T04:21:26.184Z,98
2022-09-21T04:22:32.631Z,98
2022-09-21T04:23:39.783Z,98
2022-09-21T04:24:46.322Z,98
2022-09-21T04:25:53.438Z,98
2022-09-21T04:27:00.512Z,98
2022-09-21T04:28:07.680Z,98
2022-09-21T04:29:14.285Z,98
2022-09-21T04:30:21.406Z,98
2022-09-21T04:31:28.523Z,98
2022-09-21T04:32:35.541Z,98
2022-09-21T04:33:42.682Z,98
2022-09-21T04:34:49.355Z,98
2022-09-21T04:35:56.369Z,98
2022-09-21T04:37:03.455Z,98
2022-09-21T04:38:10.555Z,98
2022-09-21T04:39:18.244Z,98
2022-09-21T04:40:24.863Z,98
2022-09-21T04:41:31.344Z,98
2022-09-21T04:42:38.501Z,98
2022-09-21T04:43:45.539Z,98
2022-09-21T04:44:52.724Z,98
2022-09-21T04:45:59.863Z,98
2022-09-21T04:47:06.355Z,98
2022-09-21T04:48:13.429Z,98
2022-09-21T04:49:20.585Z,98
2022-09-21T04:50:27.252Z,98
2022-09-21T04:51:34.273Z,98
2022-09-21T04:52:41.385Z,98
2022-09-21T04:53:48.492Z,98
2022-09-21T04:54:55.561Z,98
2022-09-21T04:56:02.682Z,98
2022-09-21T04:57:09.280Z,98
2022-09-21T04:59:23.470Z,98
2022-09-21T05:00:30.563Z,98
2022-09-21T05:01:37.709Z,98
2022-09-21T05:02:44.291Z,98
2022-09-21T05:03:51.489Z,98
2022-09-21T05:04:58.520Z,98
2022-09-21T05:07:12.692Z,98
2022-09-21T05:08:19.322Z,98
2022-09-21T05:09:26.629Z,98
2022-09-21T05:10:33.501Z,98
2022-09-21T05:11:40.576Z,98
2022-09-21T05:12:47.711Z,98
2022-09-21T05:13:54.325Z,98
2022-09-21T05:15:01.549Z,98
2022-09-21T05:16:08.593Z,98
2022-09-21T05:17:15.708Z,98
2022-09-21T05:19:29.304Z,98
2022-09-21T05:20:36.621Z,98
2022-09-21T05:21:43.494Z,98
2022-09-21T05:22:50.616Z,98
2022-09-21T05:23:57.250Z,98
2022-09-21T05:25:04.872Z,98
2022-09-21T05:26:11.454Z,98
2022-09-21T05:27:18.560Z,98
2022-09-21T05:28:25.628Z,98
2022-09-21T05:29:32.239Z,98
2022-09-21T05:31:46.527Z,98
2022-09-21T05:32:53.598Z,98
2022-09-21T05:34:00.591Z,98
2022-09-21T05:35:07.729Z,98
2022-09-21T05:36:14.378Z,98
2022-09-21T05:37:21.463Z,98
2022-09-21T05:38:29.041Z,98
2022-09-21T05:40:42.339Z,98
2022-09-21T05:41:49.402Z,98
2022-09-21T05:42:56.503Z,98
2022-09-21T05:44:03.503Z,98
2022-09-21T05:45:10.744Z,98
2022-09-21T05:46:17.290Z,98
2022-09-21T05:47:24.363Z,98
2022-09-21T05:48:31.442Z,98
2022-09-21T05:49:38.586Z,98
2022-09-21T05:50:45.680Z,98
2022-09-21T05:51:52.285Z,98
2022-09-21T05:52:59.419Z,98
2022-09-21T05:54:06.485Z,98
2022-09-21T05:55:13.547Z,98
2022-09-21T05:56:20.737Z,98
2022-09-21T05:57:30.630Z,98
2022-09-21T05:58:34.386Z,98
2022-09-21T05:59:41.446Z,98
2022-09-21T06:00:48.599Z,98
2022-09-21T06:01:55.654Z,98
2022-09-21T06:03:02.489Z,98
2022-09-21T06:04:09.472Z,98
2022-09-21T06:05:16.524Z,98
2022-09-21T06:06:23.600Z,98
2022-09-21T06:07:31.198Z,98
2022-09-21T06:08:37.334Z,98
2022-09-21T06:09:44.370Z,98
2022-09-21T06:10:51.506Z,98
2022-09-21T06:11:58.607Z,98
2022-09-21T06:13:05.671Z,98
2022-09-21T06:14:12.353Z,97
2022-09-21T06:15:19.380Z,97
2022-09-21T06:16:26.531Z,97
2022-09-21T06:17:33.577Z,97
2022-09-21T06:18:40.197Z,97
2022-09-21T06:19:47.444Z,97
2022-09-21T06:22:01.545Z,97
2022-09-21T06:23:08.634Z,97
2022-09-21T06:24:15.711Z,97
2022-09-21T06:25:22.310Z,97
2022-09-21T06:26:29.427Z,97
2022-09-21T06:27:36.533Z,97
2022-09-21T06:28:44.092Z,97
2022-09-21T06:29:50.185Z,97
2022-09-21T06:30:57.497Z,97
2022-09-21T06:32:04.395Z,97
2022-09-21T06:33:11.583Z,97
2022-09-21T06:34:18.638Z,97
2022-09-21T06:35:25.164Z,97
2022-09-21T06:36:32.259Z,97
2022-09-21T06:37:39.422Z,97
2022-09-21T06:38:46.539Z,97
2022-09-21T06:39:53.581Z,97
2022-09-21T06:41:00.258Z,97
2022-09-21T06:43:14.410Z,97
2022-09-21T06:45:28.617Z,97
2022-09-21T06:46:35.205Z,97
2022-09-21T06:47:42.312Z,97
2022-09-21T06:48:49.504Z,97
2022-09-21T06:59:59.432Z,96
2022-09-21T07:01:06.753Z,96
2022-09-21T07:03:20.250Z,95
2022-09-21T07:04:27.386Z,93
2022-09-21T07:05:34.454Z,93
2022-09-21T07:06:41.677Z,93
2022-09-21T07:07:53.512Z,93
2022-09-21T07:10:06.497Z,92
2022-09-21T07:11:09.461Z,92
2022-09-21T07:12:16.693Z,92
2022-09-21T07:14:30.259Z,92
2022-09-21T07:15:37.358Z,92
2022-09-21T07:16:47.412Z,92
2022-09-21T07:17:52.235Z,92
2022-09-21T07:19:10.187Z,92
2022-09-21T07:20:05.727Z,92
2022-09-21T07:21:12.358Z,92
2022-09-21T07:22:19.516Z,92
2022-09-21T07:23:26.692Z,92
2022-09-21T07:24:33.689Z,92
2022-09-21T07:25:40.297Z,92
2022-09-21T07:26:47.398Z,92
2022-09-21T07:27:54.439Z,92
2022-09-21T07:29:01.785Z,92
2022-09-21T07:30:08.237Z,92
2022-09-21T07:31:15.306Z,92
2022-09-21T07:33:33.895Z,92
2022-09-21T07:34:36.714Z,92
2022-09-21T07:35:44.232Z,92
2022-09-21T07:36:50.276Z,92
2022-09-21T07:37:57.376Z,91
2022-09-21T07:39:04.455Z,91
2022-09-21T07:40:11.832Z,91
2022-09-21T07:41:18.205Z,91
2022-09-21T07:42:25.294Z,91
2022-09-21T07:44:39.546Z,90
2022-09-21T07:45:46.835Z,90
2022-09-21T07:46:53.152Z,90
2022-09-21T07:48:00.328Z,90
2022-09-21T07:49:07.532Z,90
2022-09-21T07:50:14.515Z,90
2022-09-21T07:51:21.633Z,90
2022-09-21T07:52:28.199Z,90
2022-09-21T07:53:35.342Z,90
2022-09-21T07:54:42.420Z,90
2022-09-21T07:55:49.562Z,90
2022-09-21T07:56:56.613Z,90
2022-09-21T07:58:03.162Z,89
2022-09-21T08:00:17.458Z,89
2022-09-21T08:01:24.606Z,89
2022-09-21T08:02:31.776Z,89
2022-09-21T08:03:38.231Z,89
2022-09-21T08:04:45.273Z,89
2022-09-21T08:05:52.421Z,88
2022-09-21T08:06:59.566Z,88
2022-09-21T08:08:06.629Z,88
2022-09-21T08:09:13.174Z,88
2022-09-21T08:10:20.380Z,88
2022-09-21T08:11:27.873Z,88
2022-09-21T08:12:34.530Z,88
2022-09-21T08:13:41.281Z,88
2022-09-21T08:14:48.267Z,88
2022-09-21T08:15:55.355Z,88
2022-09-21T08:18:09.592Z,88
2022-09-21T08:19:16.166Z,88
2022-09-21T08:20:23.298Z,88
2022-09-21T08:21:30.378Z,88
2022-09-21T08:22:37.478Z,88
2022-09-21T08:23:44.590Z,88
2022-09-21T08:25:58.285Z,88
2022-09-21T08:28:12.470Z,88
2022-09-21T08:29:19.664Z,87
2022-09-21T08:30:26.213Z,87
2022-09-21T08:31:33.262Z,87
2022-09-21T08:32:50.936Z,87
2022-09-21T08:33:47.549Z,87
2022-09-21T08:34:54.711Z,87
2022-09-21T08:36:01.707Z,87
2022-09-21T08:37:10.998Z,86
2022-09-21T08:38:15.356Z,86
2022-09-21T08:39:24.028Z,86
2022-09-21T08:40:29.726Z,86
2022-09-21T08:41:36.625Z,86
2022-09-21T08:42:50.060Z,86
2022-09-21T08:43:50.412Z,86
2022-09-21T08:44:58.088Z,86
2022-09-21T08:46:07.760Z,86
2022-09-21T08:47:11.739Z,86
2022-09-21T08:48:21.809Z,86
2022-09-21T08:49:25.409Z,85
2022-09-21T08:50:32.956Z,85
2022-09-21T08:51:40.000Z,85
2022-09-21T08:52:47.624Z,85
2022-09-21T08:53:53.486Z,85
2022-09-21T08:55:00.452Z,85
2022-09-21T08:56:07.557Z,85
2022-09-21T08:57:14.757Z,85
2022-09-21T08:58:21.224Z,85
2022-09-21T08:59:28.343Z,85
2022-09-21T09:00:36.637Z,85
2022-09-21T09:01:42.496Z,85
2022-09-21T09:02:49.593Z,84
2022-09-21T09:03:56.943Z,84
2022-09-21T09:05:03.407Z,84
2022-09-21T09:07:17.586Z,84
2022-09-21T09:08:24.052Z,84
2022-09-21T09:09:31.283Z,85
2022-09-21T09:10:38.449Z,85
2022-09-21T09:11:45.384Z,84
2022-09-21T09:12:53.056Z,84
2022-09-21T09:13:59.691Z,84
2022-09-21T09:15:06.312Z,84
2022-09-21T09:16:13.678Z,84
2022-09-21T09:17:20.578Z,84
2022-09-21T09:18:27.996Z,84
2022-09-21T09:19:34.072Z,84
2022-09-21T09:21:48.492Z,84
2022-09-21T09:22:55.459Z,84
2022-09-21T09:24:03.586Z,84
2022-09-21T09:25:09.147Z,84
2022-09-21T09:26:17.800Z,84
2022-09-21T09:27:23.278Z,84
2022-09-21T09:28:30.467Z,84
2022-09-21T09:29:37.012Z,84
2022-09-21T09:30:44.079Z,84
2022-09-21T09:31:51.361Z,84
2022-09-21T09:33:05.585Z,84
2022-09-21T09:34:05.532Z,84
2022-09-21T09:35:12.527Z,85
2022-09-21T09:36:34.809Z,85
2022-09-21T09:37:26.287Z,84
2022-09-21T09:38:33.721Z,84
2022-09-21T09:39:41.054Z,84
2022-09-21T09:40:47.696Z,84
2022-09-21T09:41:54.431Z,84
2022-09-21T09:43:04.710Z,84
2022-09-21T09:44:08.466Z,84
2022-09-21T09:45:15.443Z,85
2022-09-21T09:46:22.678Z,85
2022-09-21T09:48:36.333Z,84
2022-09-21T09:49:43.355Z,84
2022-09-21T09:50:50.529Z,84
2022-09-21T09:51:57.569Z,84
2022-09-21T09:53:04.165Z,84
2022-09-21T09:54:11.331Z,84
2022-09-21T09:56:25.418Z,84
2022-09-21T09:58:41.751Z,84
2022-09-21T09:59:50.479Z,84
2022-09-21T10:00:53.383Z,84
2022-09-21T10:02:00.536Z,84
2022-09-21T10:03:15.869Z,84
2022-09-21T10:04:17.568Z,84
2022-09-21T10:05:22.636Z,84
2022-09-21T10:06:28.477Z,84
2022-09-21T10:07:35.541Z,84
2022-09-21T10:08:42.348Z,84
2022-09-21T10:09:49.156Z,84
2022-09-21T10:10:56.349Z,84
2022-09-21T10:12:08.110Z,84
2022-09-21T10:13:10.710Z,84
2022-09-21T10:14:17.117Z,84
2022-09-21T10:15:24.133Z,84
2022-09-21T10:16:31.398Z,84
2022-09-21T10:17:38.390Z,84
2022-09-21T10:18:45.522Z,84
2022-09-21T10:19:52.131Z,84
2022-09-21T10:20:59.323Z,84
2022-09-21T10:22:06.362Z,84
2022-09-21T10:23:13.350Z,84
2022-09-21T10:26:34.420Z,84
2022-09-21T10:27:41.374Z,84
2022-09-21T10:29:55.500Z,84
2022-09-21T10:31:02.378Z,84
2022-09-21T10:32:14.372Z,84
2022-09-21T10:33:21.210Z,84
2022-09-21T10:34:23.502Z,84
2022-09-21T10:35:30.523Z,84
2022-09-21T10:36:37.087Z,84
2022-09-21T10:37:44.289Z,84
2022-09-21T10:38:52.931Z,84
2022-09-21T10:39:59.551Z,84
2022-09-21T10:41:05.565Z,84
2022-09-21T10:42:12.089Z,84
2022-09-21T10:43:19.741Z,84
2022-09-21T10:44:26.498Z,84
2022-09-21T10:45:34.475Z,84
2022-09-21T10:46:41.114Z,84
2022-09-21T10:47:48.198Z,84
2022-09-21T10:48:54.234Z,83
2022-09-21T10:50:01.626Z,83
2022-09-21T10:51:08.542Z,83
2022-09-21T10:52:15.694Z,83
2022-09-21T10:54:29.320Z,83
2022-09-21T10:55:38.471Z,83
2022-09-21T10:56:43.663Z,83
2022-09-21T10:57:51.011Z,83
2022-09-21T10:58:57.088Z,83
2022-09-21T11:00:04.371Z,83
2022-09-21T11:01:11.509Z,84
2022-09-21T11:02:18.547Z,84
2022-09-21T11:03:25.561Z,84
2022-09-21T11:04:32.331Z,84
2022-09-21T11:05:39.278Z,84
2022-09-21T11:06:47.786Z,84
2022-09-21T11:08:08.000Z,84
2022-09-21T11:09:00.041Z,84
2022-09-21T11:11:14.269Z,84
2022-09-21T11:12:21.442Z,84
2022-09-21T11:13:45.155Z,84
2022-09-21T11:14:35.534Z,84
2022-09-21T11:15:42.229Z,84
2022-09-21T11:16:49.243Z,84
2022-09-21T11:17:56.355Z,84
2022-09-21T11:19:03.472Z,84
2022-09-21T11:20:10.048Z,84
2022-09-21T11:21:17.160Z,84
2022-09-21T11:22:24.282Z,84
2022-09-21T11:24:38.548Z,84
2022-09-21T11:25:45.098Z,84
2022-09-21T11:26:52.173Z,84
2022-09-21T11:29:06.461Z,84
2022-09-21T11:30:20.439Z,84
2022-09-21T11:31:23.501Z,84
2022-09-21T11:32:27.221Z,84
2022-09-21T11:33:34.326Z,84
2022-09-21T11:34:41.427Z,84
2022-09-21T11:35:48.483Z,84
2022-09-21T11:36:55.075Z,84
2022-09-21T11:38:02.163Z,84
2022-09-21T11:39:09.307Z,84
2022-09-21T11:40:16.495Z,84
2022-09-21T11:41:23.517Z,84
2022-09-21T11:42:30.214Z,84
2022-09-21T11:43:37.211Z,84
2022-09-21T11:44:44.357Z,84
2022-09-21T11:45:51.455Z,84
2022-09-21T11:46:59.056Z,84
2022-09-21T11:48:05.100Z,84
2022-09-21T11:49:12.346Z,84
2022-09-21T11:50:30.390Z,84
2022-09-21T11:52:33.469Z,84
2022-09-21T11:53:40.081Z,84
2022-09-21T11:54:47.417Z,84
2022-09-21T11:55:53.820Z,84
2022-09-21T11:57:01.449Z,84
2022-09-21T11:58:08.506Z,83
2022-09-21T11:59:15.107Z,83
2022-09-21T12:00:22.691Z,83
2022-09-21T12:01:30.406Z,83
2022-09-21T12:02:36.584Z,83
2022-09-21T12:03:43.578Z,83
2022-09-21T12:04:50.110Z,83
2022-09-21T12:05:57.239Z,83
2022-09-21T12:07:04.304Z,83
2022-09-21T12:08:11.425Z,83
2022-09-21T12:09:19.281Z,83
2022-09-21T12:10:25.078Z,83
2022-09-21T12:11:32.280Z,83
2022-09-21T12:12:39.325Z,83
2022-09-21T12:13:46.462Z,83
2022-09-21T12:14:53.670Z,83
2022-09-21T12:16:00.190Z,83
2022-09-21T12:17:07.270Z,83
2022-09-21T12:18:14.336Z,83
2022-09-21T12:19:21.470Z,83
2022-09-21T12:20:28.106Z,83
2022-09-21T12:21:35.169Z,83
2022-09-21T12:22:42.321Z,83
2022-09-21T12:24:55.962Z,83
2022-09-21T12:26:03.091Z,83
2022-09-21T12:27:10.205Z,83
2022-09-21T12:28:17.262Z,83
2022-09-21T12:29:24.306Z,83
2022-09-21T12:30:31.575Z,83
2022-09-21T12:33:52.303Z,83
2022-09-21T12:34:59.361Z,83
2022-09-21T12:36:06.484Z,83
2022-09-21T12:37:13.611Z,83
2022-09-21T12:38:20.226Z,83
2022-09-21T12:39:27.296Z,83
2022-09-21T12:40:34.462Z,83
2022-09-21T12:41:41.573Z,83
2022-09-21T12:42:48.118Z,83
2022-09-21T12:43:55.125Z,83
2022-09-21T12:45:02.307Z,83
2022-09-21T12:46:09.480Z,83
2022-09-21T12:47:16.547Z,83
2022-09-21T12:48:23.017Z,83
2022-09-21T12:49:30.236Z,83
2022-09-21T12:50:38.377Z,83
2022-09-21T12:52:51.554Z,83
2022-09-21T12:53:58.135Z,83
2022-09-21T12:55:05.149Z,83
2022-09-21T12:56:12.316Z,83
2022-09-21T12:57:42.754Z,83
2022-09-21T12:58:26.580Z,83
2022-09-21T12:59:33.069Z,83
2022-09-21T13:00:40.167Z,83
2022-09-21T13:01:47.406Z,83
2022-09-21T13:02:54.422Z,83
2022-09-21T13:04:01.590Z,83
2022-09-21T13:05:08.102Z,83
2022-09-21T13:06:15.193Z,83
2022-09-21T13:07:22.310Z,83
2022-09-21T13:08:29.426Z,83
2022-09-21T13:09:36.116Z,83
2022-09-21T13:10:43.116Z,83
2022-09-21T13:11:50.232Z,83
2022-09-21T13:12:57.334Z,83
2022-09-21T13:15:11.077Z,83
2022-09-21T13:16:18.177Z,83
2022-09-21T13:17:25.189Z,83
2022-09-21T13:18:35.832Z,83
2022-09-21T13:20:47.103Z,83
2022-09-21T13:21:53.118Z,83
2022-09-21T13:23:00.266Z,83
2022-09-21T13:24:07.310Z,83
2022-09-21T13:25:14.503Z,83
2022-09-21T13:26:24.668Z,83
2022-09-21T13:27:28.154Z,83
2022-09-21T13:28:35.752Z,83
2022-09-21T13:29:42.354Z,83
2022-09-21T13:30:49.430Z,83
2022-09-21T13:31:57.154Z,83
2022-09-21T13:33:03.129Z,83
2022-09-21T13:34:10.222Z,83
2022-09-21T13:36:24.464Z,83
2022-09-21T13:37:31.047Z,83
2022-09-21T13:38:38.176Z,83
2022-09-21T13:39:45.243Z,83
2022-09-21T13:40:52.371Z,83
2022-09-21T13:42:03.273Z,83
2022-09-21T13:43:06.094Z,83
2022-09-21T13:44:13.542Z,83
2022-09-21T13:45:20.254Z,83
2022-09-21T13:46:27.347Z,83
2022-09-21T13:48:41.081Z,83
2022-09-21T13:49:48.189Z,83
2022-09-21T13:50:55.277Z,83
2022-09-21T13:52:02.315Z,83
2022-09-21T13:53:09.447Z,83
2022-09-21T13:54:17.747Z,83
2022-09-21T13:55:23.213Z,83
2022-09-21T13:56:30.247Z,83
2022-09-21T13:57:37.404Z,83
2022-09-21T13:58:44.427Z,83
2022-09-21T13:59:51.101Z,83
2022-09-21T14:00:58.331Z,83
2022-09-21T14:02:05.424Z,83
2022-09-21T14:03:12.391Z,83
2022-09-21T14:04:19.539Z,83
2022-09-21T14:05:26.125Z,83
2022-09-21T14:06:33.332Z,83
2022-09-21T14:08:49.552Z,83
2022-09-21T14:09:53.931Z,83
2022-09-21T14:11:01.024Z,83
2022-09-21T14:12:08.333Z,83
2022-09-21T14:13:15.839Z,83
2022-09-21T14:14:22.428Z,83
2022-09-21T14:16:36.220Z,83
2022-09-21T14:17:44.170Z,83
2022-09-21T14:18:50.324Z,83
2022-09-21T14:21:04.071Z,83
2022-09-21T14:22:11.178Z,83
2022-09-21T14:23:18.330Z,83
2022-09-21T14:24:25.336Z,83
2022-09-21T14:25:32.437Z,83
2022-09-21T14:26:39.029Z,83
2022-09-21T14:27:46.589Z,83
2022-09-21T14:28:53.337Z,83
2022-09-21T14:30:00.554Z,83
2022-09-21T14:31:07.400Z,83
2022-09-21T14:32:14.008Z,83
2022-09-21T14:33:21.521Z,83
2022-09-21T14:34:28.460Z,83
2022-09-21T14:35:35.347Z,83
2022-09-21T14:36:42.378Z,83
2022-09-21T14:37:48.999Z,83
2022-09-21T14:38:56.332Z,83
2022-09-21T14:40:03.205Z,83
2022-09-21T14:41:13.866Z,83
2022-09-21T14:42:17.407Z,83
2022-09-21T14:43:24.007Z,83
2022-09-21T14:44:32.011Z,83
2022-09-21T14:45:38.267Z,83
2022-09-21T14:46:47.576Z,83
2022-09-21T14:47:52.425Z,83
2022-09-21T14:48:59.040Z,83
2022-09-21T14:50:10.669Z,83
2022-09-21T14:51:13.194Z,83
2022-09-21T14:52:29.097Z,83
2022-09-21T14:53:27.464Z,83
2022-09-21T14:54:35.021Z,83
2022-09-21T14:55:41.234Z,83
2022-09-21T14:56:48.849Z,83
2022-09-21T14:57:55.894Z,83
2022-09-21T14:59:02.460Z,83
2022-09-21T15:00:09.451Z,83
2022-09-21T15:01:16.229Z,83
2022-09-21T15:02:23.293Z,83
2022-09-21T15:03:30.405Z,83
2022-09-21T15:04:37.533Z,83
2022-09-21T15:05:44.059Z,83
2022-09-21T15:06:51.203Z,83
2022-09-21T15:07:58.209Z,83
2022-09-21T15:09:05.531Z,83
2022-09-21T15:10:12.216Z,83
2022-09-21T15:12:26.189Z,83
2022-09-21T15:13:33.208Z,83
2022-09-21T15:14:40.373Z,83
2022-09-21T15:15:47.087Z,83
2022-09-21T15:16:54.081Z,83
2022-09-21T15:18:02.312Z,83
2022-09-21T15:19:08.333Z,83
2022-09-21T15:20:15.544Z,83
2022-09-21T15:21:21.948Z,83
2022-09-21T15:22:29.194Z,83
2022-09-21T15:23:36.198Z,82
2022-09-21T15:24:43.275Z,82
2022-09-21T15:25:50.415Z,82
2022-09-21T15:26:57.458Z,82
2022-09-21T15:28:04.630Z,82
2022-09-21T15:29:11.187Z,82
2022-09-21T15:30:18.268Z,82
2022-09-21T15:31:25.493Z,82
2022-09-21T15:32:32.007Z,82
2022-09-21T15:33:39.515Z,82
2022-09-21T15:34:46.172Z,82
2022-09-21T15:35:54.073Z,82
2022-09-21T15:37:00.354Z,82
2022-09-21T15:38:07.054Z,82
2022-09-21T15:39:14.168Z,82
2022-09-21T15:40:21.292Z,82
2022-09-21T15:41:28.293Z,82
2022-09-21T15:43:42.018Z,82
2022-09-21T15:44:49.979Z,82
2022-09-21T15:45:56.739Z,82
2022-09-21T15:47:03.424Z,82
2022-09-21T15:49:16.972Z,82
2022-09-21T15:50:24.159Z,82
2022-09-21T15:51:32.725Z,82
2022-09-21T15:52:38.284Z,82
2022-09-21T15:53:45.460Z,82
2022-09-21T15:54:51.997Z,82
2022-09-21T15:55:59.182Z,83
2022-09-21T15:57:08.462Z,83
2022-09-21T15:58:13.269Z,83
2022-09-21T15:59:19.940Z,83
2022-09-21T16:00:27.155Z,83
2022-09-21T16:01:34.701Z,83
2022-09-21T16:02:41.259Z,83
2022-09-21T16:03:48.339Z,83
2022-09-21T16:04:54.901Z,83
2022-09-21T16:06:02.053Z,83
2022-09-21T16:08:16.271Z,83
2022-09-21T16:09:23.287Z,83
2022-09-21T16:10:29.998Z,83
2022-09-21T16:11:37.087Z,83
2022-09-21T16:12:44.133Z,83
2022-09-21T16:13:51.244Z,83
2022-09-21T16:15:03.209Z,83
2022-09-21T16:16:05.639Z,83
2022-09-21T16:17:12.577Z,83
2022-09-21T16:18:19.177Z,83
2022-09-21T16:19:26.252Z,83
2022-09-21T16:20:33.373Z,83
2022-09-21T16:21:40.099Z,84
2022-09-21T16:22:47.053Z,84
2022-09-21T16:23:54.124Z,84
2022-09-21T16:25:01.821Z,84
2022-09-21T16:26:08.391Z,84
2022-09-21T16:27:14.935Z,84
2022-09-21T16:28:22.077Z,84
2022-09-21T16:29:29.156Z,84
2022-09-21T16:30:36.302Z,84
2022-09-21T16:31:49.071Z,84
2022-09-21T16:32:49.998Z,83
2022-09-21T16:33:57.122Z,83
2022-09-21T16:36:11.325Z,83
2022-09-21T16:37:18.391Z,83
2022-09-21T16:38:24.937Z,83
2022-09-21T16:39:32.047Z,83
2022-09-21T16:40:39.226Z,83
2022-09-21T16:41:46.300Z,83
2022-09-21T16:42:53.336Z,83
2022-09-21T16:43:59.923Z,83
2022-09-21T16:45:07.269Z,83
2022-09-21T16:47:21.298Z,83
2022-09-21T16:48:28.459Z,83
2022-09-21T16:49:35.032Z,83
2022-09-21T16:50:42.056Z,82
2022-09-21T16:51:49.220Z,82
2022-09-21T16:52:56.328Z,82
2022-09-21T16:54:02.888Z,82
2022-09-21T16:55:09.957Z,82
2022-09-21T16:56:17.105Z,82
2022-09-21T16:57:24.194Z,82
2022-09-21T16:58:31.831Z,82
2022-09-21T16:59:37.905Z,82
2022-09-21T17:00:45.009Z,82
2022-09-21T17:01:56.064Z,82
2022-09-21T17:04:06.290Z,82
2022-09-21T17:05:13.355Z,81
2022-09-21T17:06:20.036Z,81
2022-09-21T17:07:27.129Z,81
2022-09-21T17:08:34.237Z,81
2022-09-21T17:09:41.874Z,81
2022-09-21T17:10:47.876Z,81
2022-09-21T17:11:55.006Z,81
2022-09-21T17:13:02.105Z,81
2022-09-21T17:14:09.306Z,81
2022-09-21T17:15:16.362Z,81